Jmst, North Dakota
Current Conditions -  °F | °C
As of 1:56 PM on Sunday 23 Nov 2014 (Local Time) from KJMS Reporting Station
Overcast Overcast  
Wind Chill: 12°   Ceiling: 2200
Heat Index: 27°   Visibility: 10mi
Dew Point: 18°   Wind: 24mph
Humidity: 69%   Direction: 290°WNW
Pressure: 29.48"   Gusts: 31mph
Location:  46.8494°N, 98.7424°W
Report Text: KJMS 231956Z AUTO 29021G27KT 10SM OVC022 M03/M08 A2948 RMK AO2 PK WND 29028/1915 SLP001 T10281078
Loading
Personal Weather Stations






























Interactive Weather Map New forecast layout! Learn more

10-Day Weather Forecast

Advertisements
Track Severe Weather on mobile